sensor_id;sensor_type;location;lat;lon;timestamp;P1;durP1;ratioP1;P2;durP2;ratioP2
15246;SDS011;7726;48.820;9.248;2024-03-02T00:01:20;12.27;;;10.03;;
15246;SDS011;7726;48.820;9.248;2024-03-02T00:03:47;10.53;;;9.43;;
15246;SDS011;7726;48.820;9.248;2024-03-02T00:06:14;10.30;;;9.03;;
15246;SDS011;7726;48.820;9.248;2024-03-02T00:08:42;11.60;;;9.77;;
15246;SDS011;7726;48.820;9.248;2024-03-02T00:11:09;14.60;;;9.10;;
15246;SDS011;7726;48.820;9.248;2024-03-02T00:13:39;10.83;;;9.00;;
15246;SDS011;7726;48.820;9.248;2024-03-02T00:16:06;10.43;;;8.80;;
15246;SDS011;7726;48.820;9.248;2024-03-02T00:18:35;13.63;;;9.50;;
15246;SDS011;7726;48.820;9.248;2024-03-02T00:21:02;12.67;;;9.60;;
15246;SDS011;7726;48.820;9.248;2024-03-02T00:23:30;11.13;;;9.20;;
15246;SDS011;7726;48.820;9.248;2024-03-02T00:25:58;12.70;;;9.00;;
15246;SDS011;7726;48.820;9.248;2024-03-02T00:28:27;12.30;;;10.17;;
15246;SDS011;7726;48.820;9.248;2024-03-02T00:30:58;12.87;;;10.33;;
15246;SDS011;7726;48.820;9.248;2024-03-02T00:33:30;11.90;;;9.23;;
15246;SDS011;7726;48.820;9.248;2024-03-02T00:35:59;10.57;;;8.57;;
15246;SDS011;7726;48.820;9.248;2024-03-02T00:38:26;12.60;;;9.20;;
15246;SDS011;7726;48.820;9.248;2024-03-02T00:40:54;13.73;;;9.70;;
15246;SDS011;7726;48.820;9.248;2024-03-02T00:46:13;13.40;;;10.40;;
15246;SDS011;7726;48.820;9.248;2024-03-02T00:48:45;13.33;;;10.80;;
15246;SDS011;7726;48.820;9.248;2024-03-02T00:51:15;12.13;;;10.20;;
15246;SDS011;7726;48.820;9.248;2024-03-02T00:53:42;11.47;;;9.17;;
15246;SDS011;7726;48.820;9.248;2024-03-02T00:56:10;13.33;;;10.37;;
15246;SDS011;7726;48.820;9.248;2024-03-02T00:58:37;12.63;;;9.57;;
15246;SDS011;7726;48.820;9.248;2024-03-02T01:01:05;12.77;;;9.63;;
15246;SDS011;7726;48.820;9.248;2024-03-02T01:03:32;11.20;;;9.47;;
15246;SDS011;7726;48.820;9.248;2024-03-02T01:05:59;11.17;;;9.47;;
15246;SDS011;7726;48.820;9.248;2024-03-02T01:08:28;12.10;;;9.27;;
15246;SDS011;7726;48.820;9.248;2024-03-02T01:10:55;12.43;;;10.03;;
15246;SDS011;7726;48.820;9.248;2024-03-02T01:13:23;12.53;;;9.97;;
15246;SDS011;7726;48.820;9.248;2024-03-02T01:15:50;12.57;;;9.87;;
15246;SDS011;7726;48.820;9.248;2024-03-02T01:18:18;11.37;;;9.40;;
15246;SDS011;7726;48.820;9.248;2024-03-02T01:20:45;11.70;;;9.03;;
15246;SDS011;7726;48.820;9.248;2024-03-02T01:23:13;12.87;;;10.10;;
15246;SDS011;7726;48.820;9.248;2024-03-02T01:25:41;11.37;;;9.93;;
15246;SDS011;7726;48.820;9.248;2024-03-02T01:28:08;11.47;;;10.27;;
15246;SDS011;7726;48.820;9.248;2024-03-02T01:30:35;12.23;;;10.93;;
15246;SDS011;7726;48.820;9.248;2024-03-02T01:33:03;12.57;;;10.23;;
15246;SDS011;7726;48.820;9.248;2024-03-02T01:35:31;13.80;;;10.20;;
15246;SDS011;7726;48.820;9.248;2024-03-02T01:38:00;12.23;;;9.77;;
15246;SDS011;7726;48.820;9.248;2024-03-02T01:40:27;11.83;;;9.37;;
15246;SDS011;7726;48.820;9.248;2024-03-02T01:42:55;10.77;;;8.90;;
15246;SDS011;7726;48.820;9.248;2024-03-02T01:45:23;10.30;;;8.70;;
15246;SDS011;7726;48.820;9.248;2024-03-02T01:47:50;10.97;;;9.20;;
15246;SDS011;7726;48.820;9.248;2024-03-02T01:50:24;12.43;;;9.00;;
15246;SDS011;7726;48.820;9.248;2024-03-02T01:52:51;12.37;;;8.80;;
15246;SDS011;7726;48.820;9.248;2024-03-02T01:55:18;12.60;;;9.43;;
15246;SDS011;7726;48.820;9.248;2024-03-02T01:57:45;11.80;;;9.83;;
15246;SDS011;7726;48.820;9.248;2024-03-02T02:00:15;12.03;;;9.60;;
15246;SDS011;7726;48.820;9.248;2024-03-02T02:02:42;9.93;;;8.83;;
15246;SDS011;7726;48.820;9.248;2024-03-02T02:05:10;12.03;;;9.20;;
15246;SDS011;7726;48.820;9.248;2024-03-02T02:07:37;11.97;;;9.10;;
15246;SDS011;7726;48.820;9.248;2024-03-02T02:10:05;11.73;;;9.43;;
15246;SDS011;7726;48.820;9.248;2024-03-02T02:12:32;10.67;;;9.40;;
15246;SDS011;7726;48.820;9.248;2024-03-02T02:15:00;12.30;;;9.37;;
15246;SDS011;7726;48.820;9.248;2024-03-02T02:17:28;11.33;;;9.47;;
15246;SDS011;7726;48.820;9.248;2024-03-02T02:19:55;12.57;;;9.20;;
15246;SDS011;7726;48.820;9.248;2024-03-02T02:22:24;13.37;;;9.50;;
15246;SDS011;7726;48.820;9.248;2024-03-02T02:24:51;12.13;;;9.57;;
15246;SDS011;7726;48.820;9.248;2024-03-02T02:27:18;11.80;;;9.10;;
15246;SDS011;7726;48.820;9.248;2024-03-02T02:29:45;11.67;;;9.07;;
15246;SDS011;7726;48.820;9.248;2024-03-02T02:32:12;13.40;;;9.73;;
15246;SDS011;7726;48.820;9.248;2024-03-02T02:34:39;12.03;;;9.43;;
15246;SDS011;7726;48.820;9.248;2024-03-02T02:37:07;13.00;;;9.90;;
15246;SDS011;7726;48.820;9.248;2024-03-02T02:39:35;13.37;;;10.43;;
15246;SDS011;7726;48.820;9.248;2024-03-02T02:42:02;12.73;;;10.50;;
15246;SDS011;7726;48.820;9.248;2024-03-02T02:44:29;14.00;;;10.27;;
15246;SDS011;7726;48.820;9.248;2024-03-02T02:46:57;16.23;;;10.30;;
15246;SDS011;7726;48.820;9.248;2024-03-02T02:49:24;11.63;;;10.13;;
15246;SDS011;7726;48.820;9.248;2024-03-02T02:51:51;12.77;;;9.63;;
15246;SDS011;7726;48.820;9.248;2024-03-02T02:54:19;11.30;;;9.60;;
15246;SDS011;7726;48.820;9.248;2024-03-02T02:56:47;12.33;;;9.60;;
15246;SDS011;7726;48.820;9.248;2024-03-02T02:59:14;11.90;;;9.63;;
15246;SDS011;7726;48.820;9.248;2024-03-02T03:01:41;13.70;;;9.10;;
15246;SDS011;7726;48.820;9.248;2024-03-02T03:04:09;12.90;;;9.60;;
15246;SDS011;7726;48.820;9.248;2024-03-02T03:06:36;13.73;;;10.93;;
15246;SDS011;7726;48.820;9.248;2024-03-02T03:09:03;14.70;;;10.10;;
15246;SDS011;7726;48.820;9.248;2024-03-02T03:11:30;14.53;;;9.57;;
15246;SDS011;7726;48.820;9.248;2024-03-02T03:13:59;13.53;;;9.47;;
15246;SDS011;7726;48.820;9.248;2024-03-02T03:16:26;14.37;;;10.03;;
15246;SDS011;7726;48.820;9.248;2024-03-02T03:18:53;12.70;;;9.77;;
15246;SDS011;7726;48.820;9.248;2024-03-02T03:21:20;12.80;;;10.37;;
15246;SDS011;7726;48.820;9.248;2024-03-02T03:23:48;13.33;;;10.67;;
15246;SDS011;7726;48.820;9.248;2024-03-02T03:26:15;12.53;;;9.30;;
15246;SDS011;7726;48.820;9.248;2024-03-02T03:28:42;13.67;;;9.73;;
15246;SDS011;7726;48.820;9.248;2024-03-02T03:31:11;14.87;;;10.93;;
15246;SDS011;7726;48.820;9.248;2024-03-02T03:33:38;12.50;;;10.00;;
15246;SDS011;7726;48.820;9.248;2024-03-02T03:36:05;12.00;;;9.17;;
15246;SDS011;7726;48.820;9.248;2024-03-02T03:38:32;13.07;;;9.73;;
15246;SDS011;7726;48.820;9.248;2024-03-02T03:41:00;12.83;;;9.60;;
15246;SDS011;7726;48.820;9.248;2024-03-02T03:43:27;13.30;;;9.67;;
15246;SDS011;7726;48.820;9.248;2024-03-02T03:45:54;12.30;;;9.40;;
15246;SDS011;7726;48.820;9.248;2024-03-02T03:48:23;12.13;;;9.63;;
15246;SDS011;7726;48.820;9.248;2024-03-02T03:50:55;12.47;;;10.17;;
15246;SDS011;7726;48.820;9.248;2024-03-02T03:53:22;13.07;;;9.87;;
15246;SDS011;7726;48.820;9.248;2024-03-02T03:55:49;15.80;;;9.73;;
15246;SDS011;7726;48.820;9.248;2024-03-02T03:58:16;13.10;;;9.97;;
15246;SDS011;7726;48.820;9.248;2024-03-02T04:00:45;14.87;;;10.13;;
15246;SDS011;7726;48.820;9.248;2024-03-02T04:03:12;14.87;;;9.93;;
15246;SDS011;7726;48.820;9.248;2024-03-02T04:05:41;14.50;;;10.27;;
15246;SDS011;7726;48.820;9.248;2024-03-02T04:08:08;13.13;;;10.40;;
15246;SDS011;7726;48.820;9.248;2024-03-02T04:10:36;14.23;;;9.90;;
15246;SDS011;7726;48.820;9.248;2024-03-02T04:13:05;14.60;;;9.30;;
15246;SDS011;7726;48.820;9.248;2024-03-02T04:15:32;13.27;;;9.67;;
15246;SDS011;7726;48.820;9.248;2024-03-02T04:17:59;11.83;;;9.67;;
15246;SDS011;7726;48.820;9.248;2024-03-02T04:20:26;11.80;;;9.57;;
15246;SDS011;7726;48.820;9.248;2024-03-02T04:22:56;15.23;;;10.07;;
15246;SDS011;7726;48.820;9.248;2024-03-02T04:25:23;13.63;;;10.67;;
15246;SDS011;7726;48.820;9.248;2024-03-02T04:27:50;13.57;;;9.80;;
15246;SDS011;7726;48.820;9.248;2024-03-02T04:32:47;12.17;;;8.97;;
15246;SDS011;7726;48.820;9.248;2024-03-02T04:35:14;12.73;;;10.17;;
15246;SDS011;7726;48.820;9.248;2024-03-02T04:37:41;11.07;;;8.73;;
15246;SDS011;7726;48.820;9.248;2024-03-02T04:40:10;13.10;;;9.47;;
15246;SDS011;7726;48.820;9.248;2024-03-02T04:42:38;12.17;;;9.00;;
15246;SDS011;7726;48.820;9.248;2024-03-02T04:45:05;13.77;;;9.77;;
15246;SDS011;7726;48.820;9.248;2024-03-02T04:47:32;13.83;;;10.40;;
15246;SDS011;7726;48.820;9.248;2024-03-02T04:50:00;15.77;;;9.87;;
15246;SDS011;7726;48.820;9.248;2024-03-02T04:52:27;14.27;;;9.53;;
15246;SDS011;7726;48.820;9.248;2024-03-02T04:54:54;13.93;;;10.27;;
15246;SDS011;7726;48.820;9.248;2024-03-02T04:57:51;13.07;;;10.10;;
15246;SDS011;7726;48.820;9.248;2024-03-02T05:00:19;14.73;;;10.23;;
15246;SDS011;7726;48.820;9.248;2024-03-02T05:02:46;12.63;;;10.00;;
15246;SDS011;7726;48.820;9.248;2024-03-02T05:05:14;14.10;;;10.03;;
15246;SDS011;7726;48.820;9.248;2024-03-02T05:07:41;13.67;;;10.03;;
15246;SDS011;7726;48.820;9.248;2024-03-02T05:10:09;14.00;;;10.23;;
15246;SDS011;7726;48.820;9.248;2024-03-02T05:12:37;12.00;;;9.27;;
15246;SDS011;7726;48.820;9.248;2024-03-02T05:15:23;14.47;;;10.23;;
15246;SDS011;7726;48.820;9.248;2024-03-02T05:17:50;13.40;;;9.43;;
15246;SDS011;7726;48.820;9.248;2024-03-02T05:20:17;14.27;;;9.70;;
15246;SDS011;7726;48.820;9.248;2024-03-02T05:22:45;12.80;;;9.47;;
15246;SDS011;7726;48.820;9.248;2024-03-02T05:25:12;13.43;;;9.03;;
15246;SDS011;7726;48.820;9.248;2024-03-02T05:27:39;12.47;;;9.87;;
15246;SDS011;7726;48.820;9.248;2024-03-02T05:30:07;13.00;;;9.83;;
15246;SDS011;7726;48.820;9.248;2024-03-02T05:32:35;14.50;;;9.27;;
15246;SDS011;7726;48.820;9.248;2024-03-02T05:35:03;15.33;;;9.33;;
15246;SDS011;7726;48.820;9.248;2024-03-02T05:37:30;13.43;;;9.83;;
15246;SDS011;7726;48.820;9.248;2024-03-02T05:39:57;13.50;;;9.50;;
15246;SDS011;7726;48.820;9.248;2024-03-02T05:42:25;15.27;;;9.83;;
15246;SDS011;7726;48.820;9.248;2024-03-02T05:44:52;15.60;;;10.90;;
15246;SDS011;7726;48.820;9.248;2024-03-02T05:47:20;15.67;;;10.50;;
15246;SDS011;7726;48.820;9.248;2024-03-02T05:49:48;15.43;;;10.80;;
15246;SDS011;7726;48.820;9.248;2024-03-02T05:52:15;14.90;;;10.80;;
15246;SDS011;7726;48.820;9.248;2024-03-02T05:54:43;16.07;;;10.60;;
15246;SDS011;7726;48.820;9.248;2024-03-02T05:57:10;13.87;;;10.37;;
15246;SDS011;7726;48.820;9.248;2024-03-02T05:59:51;13.77;;;10.63;;
15246;SDS011;7726;48.820;9.248;2024-03-02T06:02:18;15.43;;;10.20;;
15246;SDS011;7726;48.820;9.248;2024-03-02T06:04:46;14.03;;;10.20;;
15246;SDS011;7726;48.820;9.248;2024-03-02T06:07:14;15.60;;;10.90;;
15246;SDS011;7726;48.820;9.248;2024-03-02T06:09:41;12.70;;;10.23;;
15246;SDS011;7726;48.820;9.248;2024-03-02T06:12:09;15.30;;;12.07;;
15246;SDS011;7726;48.820;9.248;2024-03-02T06:14:36;16.20;;;11.40;;
15246;SDS011;7726;48.820;9.248;2024-03-02T06:17:04;16.53;;;11.10;;
15246;SDS011;7726;48.820;9.248;2024-03-02T06:19:31;17.50;;;11.60;;
15246;SDS011;7726;48.820;9.248;2024-03-02T06:21:58;13.67;;;10.97;;
15246;SDS011;7726;48.820;9.248;2024-03-02T06:24:27;15.97;;;11.43;;
15246;SDS011;7726;48.820;9.248;2024-03-02T06:26:54;13.20;;;10.70;;
15246;SDS011;7726;48.820;9.248;2024-03-02T06:29:21;14.60;;;10.67;;
15246;SDS011;7726;48.820;9.248;2024-03-02T06:31:48;13.73;;;11.03;;
15246;SDS011;7726;48.820;9.248;2024-03-02T06:34:15;14.33;;;11.03;;
15246;SDS011;7726;48.820;9.248;2024-03-02T06:36:43;14.47;;;10.90;;
15246;SDS011;7726;48.820;9.248;2024-03-02T06:39:10;14.20;;;11.20;;
15246;SDS011;7726;48.820;9.248;2024-03-02T06:41:39;16.20;;;11.33;;
15246;SDS011;7726;48.820;9.248;2024-03-02T06:44:07;19.53;;;11.07;;
15246;SDS011;7726;48.820;9.248;2024-03-02T06:46:34;14.90;;;11.33;;
15246;SDS011;7726;48.820;9.248;2024-03-02T06:49:01;13.53;;;10.43;;
15246;SDS011;7726;48.820;9.248;2024-03-02T06:51:29;15.90;;;11.30;;
15246;SDS011;7726;48.820;9.248;2024-03-02T06:53:56;13.10;;;10.43;;
15246;SDS011;7726;48.820;9.248;2024-03-02T06:56:23;14.67;;;11.27;;
15246;SDS011;7726;48.820;9.248;2024-03-02T06:58:52;17.30;;;12.20;;
15246;SDS011;7726;48.820;9.248;2024-03-02T07:01:19;14.60;;;12.47;;
15246;SDS011;7726;48.820;9.248;2024-03-02T07:03:46;15.20;;;11.40;;
15246;SDS011;7726;48.820;9.248;2024-03-02T07:06:13;14.47;;;10.90;;
15246;SDS011;7726;48.820;9.248;2024-03-02T07:08:40;14.37;;;10.40;;
15246;SDS011;7726;48.820;9.248;2024-03-02T07:11:07;12.70;;;10.27;;
15246;SDS011;7726;48.820;9.248;2024-03-02T07:13:35;11.47;;;9.67;;
15246;SDS011;7726;48.820;9.248;2024-03-02T07:16:03;11.83;;;10.27;;
15246;SDS011;7726;48.820;9.248;2024-03-02T07:18:53;11.83;;;9.57;;
15246;SDS011;7726;48.820;9.248;2024-03-02T07:21:21;13.77;;;10.33;;
15246;SDS011;7726;48.820;9.248;2024-03-02T07:23:48;10.47;;;9.40;;
15246;SDS011;7726;48.820;9.248;2024-03-02T07:26:15;10.43;;;8.90;;
15246;SDS011;7726;48.820;9.248;2024-03-02T07:28:43;10.53;;;9.43;;
15246;SDS011;7726;48.820;9.248;2024-03-02T07:31:12;11.33;;;9.00;;
15246;SDS011;7726;48.820;9.248;2024-03-02T07:33:40;10.00;;;8.40;;
15246;SDS011;7726;48.820;9.248;2024-03-02T07:36:07;10.97;;;8.87;;
15246;SDS011;7726;48.820;9.248;2024-03-02T07:38:34;12.97;;;9.03;;
15246;SDS011;7726;48.820;9.248;2024-03-02T07:41:02;10.20;;;8.40;;
15246;SDS011;7726;48.820;9.248;2024-03-02T07:43:30;10.10;;;7.90;;
15246;SDS011;7726;48.820;9.248;2024-03-02T07:45:58;9.30;;;7.50;;
15246;SDS011;7726;48.820;9.248;2024-03-02T07:48:26;9.23;;;7.47;;
15246;SDS011;7726;48.820;9.248;2024-03-02T07:50:54;9.50;;;7.93;;
15246;SDS011;7726;48.820;9.248;2024-03-02T07:53:21;7.80;;;7.00;;
15246;SDS011;7726;48.820;9.248;2024-03-02T07:55:48;8.73;;;7.83;;
15246;SDS011;7726;48.820;9.248;2024-03-02T07:58:15;9.07;;;7.63;;
15246;SDS011;7726;48.820;9.248;2024-03-02T08:00:44;7.93;;;7.10;;
15246;SDS011;7726;48.820;9.248;2024-03-02T08:03:11;8.07;;;7.03;;
15246;SDS011;7726;48.820;9.248;2024-03-02T08:05:40;7.80;;;7.00;;
15246;SDS011;7726;48.820;9.248;2024-03-02T08:08:07;8.37;;;7.30;;
15246;SDS011;7726;48.820;9.248;2024-03-02T08:10:34;9.17;;;7.87;;
15246;SDS011;7726;48.820;9.248;2024-03-02T08:13:01;8.40;;;7.50;;
15246;SDS011;7726;48.820;9.248;2024-03-02T08:15:28;8.27;;;6.93;;
15246;SDS011;7726;48.820;9.248;2024-03-02T08:17:55;8.60;;;7.20;;
15246;SDS011;7726;48.820;9.248;2024-03-02T08:20:23;7.80;;;7.00;;
15246;SDS011;7726;48.820;9.248;2024-03-02T08:22:51;7.63;;;6.73;;
15246;SDS011;7726;48.820;9.248;2024-03-02T08:25:20;8.23;;;7.27;;
15246;SDS011;7726;48.820;9.248;2024-03-02T08:27:47;8.68;;;6.57;;
15246;SDS011;7726;48.820;9.248;2024-03-02T08:30:14;7.27;;;6.57;;
15246;SDS011;7726;48.820;9.248;2024-03-02T08:32:43;7.43;;;6.63;;
15246;SDS011;7726;48.820;9.248;2024-03-02T08:35:12;7.63;;;6.73;;
15246;SDS011;7726;48.820;9.248;2024-03-02T08:37:39;8.07;;;6.20;;
15246;SDS011;7726;48.820;9.248;2024-03-02T08:40:08;6.20;;;5.57;;
15246;SDS011;7726;48.820;9.248;2024-03-02T08:42:36;7.73;;;6.40;;
15246;SDS011;7726;48.820;9.248;2024-03-02T08:45:03;7.23;;;6.13;;
15246;SDS011;7726;48.820;9.248;2024-03-02T08:47:31;6.38;;;5.38;;
15246;SDS011;7726;48.820;9.248;2024-03-02T08:49:58;7.68;;;5.50;;
15246;SDS011;7726;48.820;9.248;2024-03-02T08:52:26;6.45;;;5.63;;
15246;SDS011;7726;48.820;9.248;2024-03-02T08:54:53;6.45;;;5.57;;
15246;SDS011;7726;48.820;9.248;2024-03-02T08:57:22;6.22;;;5.63;;
15246;SDS011;7726;48.820;9.248;2024-03-02T08:59:49;10.43;;;5.55;;
15246;SDS011;7726;48.820;9.248;2024-03-02T09:02:16;8.02;;;5.18;;
15246;SDS011;7726;48.820;9.248;2024-03-02T09:04:43;6.10;;;5.22;;
15246;SDS011;7726;48.820;9.248;2024-03-02T09:07:10;5.80;;;5.05;;
15246;SDS011;7726;48.820;9.248;2024-03-02T09:09:37;7.53;;;5.35;;
15246;SDS011;7726;48.820;9.248;2024-03-02T09:12:05;5.22;;;4.72;;
15246;SDS011;7726;48.820;9.248;2024-03-02T09:14:33;6.97;;;5.20;;
15246;SDS011;7726;48.820;9.248;2024-03-02T09:17:01;5.93;;;4.55;;
15246;SDS011;7726;48.820;9.248;2024-03-02T09:19:29;5.32;;;4.82;;
15246;SDS011;7726;48.820;9.248;2024-03-02T09:21:56;4.88;;;4.47;;
15246;SDS011;7726;48.820;9.248;2024-03-02T09:24:23;5.80;;;5.20;;
15246;SDS011;7726;48.820;9.248;2024-03-02T09:26:51;5.40;;;4.82;;
15246;SDS011;7726;48.820;9.248;2024-03-02T09:29:18;5.78;;;5.28;;
15246;SDS011;7726;48.820;9.248;2024-03-02T09:31:47;5.57;;;5.03;;
15246;SDS011;7726;48.820;9.248;2024-03-02T09:34:16;4.78;;;4.38;;
15246;SDS011;7726;48.820;9.248;2024-03-02T09:36:43;5.15;;;4.60;;
15246;SDS011;7726;48.820;9.248;2024-03-02T09:39:10;6.00;;;4.28;;
15246;SDS011;7726;48.820;9.248;2024-03-02T09:41:38;5.47;;;4.38;;
15246;SDS011;7726;48.820;9.248;2024-03-02T09:44:05;4.32;;;3.70;;
15246;SDS011;7726;48.820;9.248;2024-03-02T09:46:32;4.88;;;3.95;;
15246;SDS011;7726;48.820;9.248;2024-03-02T09:49:02;4.30;;;3.85;;
15246;SDS011;7726;48.820;9.248;2024-03-02T09:51:30;3.72;;;3.42;;
15246;SDS011;7726;48.820;9.248;2024-03-02T09:53:58;4.47;;;3.60;;
15246;SDS011;7726;48.820;9.248;2024-03-02T09:56:28;4.90;;;4.10;;
15246;SDS011;7726;48.820;9.248;2024-03-02T09:58:55;4.05;;;3.65;;
15246;SDS011;7726;48.820;9.248;2024-03-02T10:01:22;4.07;;;3.75;;
15246;SDS011;7726;48.820;9.248;2024-03-02T10:03:49;3.85;;;3.47;;
15246;SDS011;7726;48.820;9.248;2024-03-02T10:06:22;3.67;;;3.38;;
15246;SDS011;7726;48.820;9.248;2024-03-02T10:08:49;3.45;;;3.15;;
15246;SDS011;7726;48.820;9.248;2024-03-02T10:11:25;3.53;;;3.22;;
15246;SDS011;7726;48.820;9.248;2024-03-02T10:14:03;3.10;;;2.80;;
15246;SDS011;7726;48.820;9.248;2024-03-02T10:16:33;3.22;;;3.03;;
15246;SDS011;7726;48.820;9.248;2024-03-02T10:19:09;3.45;;;2.83;;
15246;SDS011;7726;48.820;9.248;2024-03-02T10:21:43;3.65;;;3.20;;
15246;SDS011;7726;48.820;9.248;2024-03-02T10:24:10;2.90;;;2.70;;
15246;SDS011;7726;48.820;9.248;2024-03-02T10:26:37;3.28;;;2.97;;
15246;SDS011;7726;48.820;9.248;2024-03-02T10:29:05;3.45;;;2.70;;
15246;SDS011;7726;48.820;9.248;2024-03-02T10:31:32;4.88;;;3.00;;
15246;SDS011;7726;48.820;9.248;2024-03-02T10:33:59;3.30;;;2.97;;
15246;SDS011;7726;48.820;9.248;2024-03-02T10:36:27;2.92;;;2.70;;
15246;SDS011;7726;48.820;9.248;2024-03-02T10:38:57;3.25;;;2.42;;
15246;SDS011;7726;48.820;9.248;2024-03-02T10:41:26;2.88;;;2.67;;
15246;SDS011;7726;48.820;9.248;2024-03-02T10:43:53;3.10;;;2.80;;
15246;SDS011;7726;48.820;9.248;2024-03-02T10:46:25;3.05;;;2.70;;
15246;SDS011;7726;48.820;9.248;2024-03-02T10:48:55;3.60;;;2.85;;
15246;SDS011;7726;48.820;9.248;2024-03-02T10:51:23;2.85;;;2.65;;
15246;SDS011;7726;48.820;9.248;2024-03-02T10:53:51;3.75;;;3.03;;
15246;SDS011;7726;48.820;9.248;2024-03-02T10:56:21;3.22;;;2.92;;
15246;SDS011;7726;48.820;9.248;2024-03-02T10:58:49;3.00;;;2.70;;
15246;SDS011;7726;48.820;9.248;2024-03-02T11:01:17;3.10;;;2.80;;
15246;SDS011;7726;48.820;9.248;2024-03-02T11:03:45;2.63;;;2.42;;
15246;SDS011;7726;48.820;9.248;2024-03-02T11:06:13;2.42;;;2.22;;
15246;SDS011;7726;48.820;9.248;2024-03-02T11:08:40;2.83;;;2.60;;
15246;SDS011;7726;48.820;9.248;2024-03-02T11:11:11;3.70;;;2.92;;
15246;SDS011;7726;48.820;9.248;2024-03-02T11:13:44;4.60;;;2.92;;
15246;SDS011;7726;48.820;9.248;2024-03-02T11:16:15;2.70;;;2.50;;
15246;SDS011;7726;48.820;9.248;2024-03-02T11:18:45;3.92;;;3.45;;
15246;SDS011;7726;48.820;9.248;2024-03-02T11:21:14;2.85;;;2.50;;
15246;SDS011;7726;48.820;9.248;2024-03-02T11:23:42;2.97;;;2.40;;
15246;SDS011;7726;48.820;9.248;2024-03-02T11:26:18;2.10;;;1.90;;
15246;SDS011;7726;48.820;9.248;2024-03-02T11:28:46;2.20;;;2.00;;
15246;SDS011;7726;48.820;9.248;2024-03-02T11:31:13;2.20;;;2.00;;
15246;SDS011;7726;48.820;9.248;2024-03-02T11:33:41;2.33;;;2.13;;
15246;SDS011;7726;48.820;9.248;2024-03-02T11:36:08;2.72;;;2.30;;
15246;SDS011;7726;48.820;9.248;2024-03-02T11:38:35;1.92;;;1.70;;
15246;SDS011;7726;48.820;9.248;2024-03-02T11:41:05;1.80;;;1.70;;
15246;SDS011;7726;48.820;9.248;2024-03-02T11:43:33;1.65;;;1.55;;
15246;SDS011;7726;48.820;9.248;2024-03-02T11:46:05;1.35;;;1.27;;
15246;SDS011;7726;48.820;9.248;2024-03-02T11:48:34;1.45;;;1.35;;
15246;SDS011;7726;48.820;9.248;2024-03-02T11:51:02;1.33;;;1.00;;
15246;SDS011;7726;48.820;9.248;2024-03-02T11:53:30;1.05;;;1.02;;
15246;SDS011;7726;48.820;9.248;2024-03-02T11:55:58;3.55;;;1.38;;
15246;SDS011;7726;48.820;9.248;2024-03-02T11:58:26;1.30;;;1.20;;
15246;SDS011;7726;48.820;9.248;2024-03-02T12:00:54;0.50;;;0.50;;
15246;SDS011;7726;48.820;9.248;2024-03-02T12:03:23;0.60;;;0.60;;
15246;SDS011;7726;48.820;9.248;2024-03-02T12:05:52;0.60;;;0.60;;
15246;SDS011;7726;48.820;9.248;2024-03-02T12:08:19;1.38;;;1.23;;
15246;SDS011;7726;48.820;9.248;2024-03-02T12:10:57;1.58;;;1.15;;
15246;SDS011;7726;48.820;9.248;2024-03-02T12:13:25;1.70;;;1.38;;
15246;SDS011;7726;48.820;9.248;2024-03-02T12:15:53;1.30;;;1.20;;
15246;SDS011;7726;48.820;9.248;2024-03-02T12:18:22;0.75;;;0.75;;
15246;SDS011;7726;48.820;9.248;2024-03-02T12:20:50;1.05;;;0.70;;
15246;SDS011;7726;48.820;9.248;2024-03-02T12:23:21;0.40;;;0.40;;
15246;SDS011;7726;48.820;9.248;2024-03-02T12:25:48;0.70;;;0.70;;
15246;SDS011;7726;48.820;9.248;2024-03-02T12:28:15;0.60;;;0.60;;
15246;SDS011;7726;48.820;9.248;2024-03-02T12:30:43;0.93;;;0.93;;
15246;SDS011;7726;48.820;9.248;2024-03-02T12:33:10;0.70;;;0.60;;
15246;SDS011;7726;48.820;9.248;2024-03-02T12:35:39;0.70;;;0.70;;
15246;SDS011;7726;48.820;9.248;2024-03-02T12:38:07;1.00;;;0.90;;
15246;SDS011;7726;48.820;9.248;2024-03-02T12:40:35;0.90;;;0.63;;
15246;SDS011;7726;48.820;9.248;2024-03-02T12:43:04;0.70;;;0.70;;
15246;SDS011;7726;48.820;9.248;2024-03-02T12:45:32;1.40;;;0.95;;
15246;SDS011;7726;48.820;9.248;2024-03-02T12:47:59;2.25;;;0.93;;
15246;SDS011;7726;48.820;9.248;2024-03-02T12:50:27;1.30;;;0.75;;
15246;SDS011;7726;48.820;9.248;2024-03-02T12:52:56;1.38;;;0.93;;
15246;SDS011;7726;48.820;9.248;2024-03-02T12:55:23;0.77;;;0.77;;
15246;SDS011;7726;48.820;9.248;2024-03-02T12:57:51;0.30;;;0.30;;
15246;SDS011;7726;48.820;9.248;2024-03-02T13:00:19;0.57;;;0.52;;
15246;SDS011;7726;48.820;9.248;2024-03-02T13:02:46;0.40;;;0.40;;
15246;SDS011;7726;48.820;9.248;2024-03-02T13:05:15;0.40;;;0.40;;
15246;SDS011;7726;48.820;9.248;2024-03-02T13:07:42;0.47;;;0.47;;
15246;SDS011;7726;48.820;9.248;2024-03-02T13:10:12;0.75;;;0.60;;
15246;SDS011;7726;48.820;9.248;2024-03-02T13:12:39;0.68;;;0.60;;
15246;SDS011;7726;48.820;9.248;2024-03-02T13:15:06;1.35;;;0.73;;
15246;SDS011;7726;48.820;9.248;2024-03-02T13:17:35;0.60;;;0.60;;
15246;SDS011;7726;48.820;9.248;2024-03-02T13:20:02;0.82;;;0.60;;
15246;SDS011;7726;48.820;9.248;2024-03-02T13:22:33;0.75;;;0.75;;
15246;SDS011;7726;48.820;9.248;2024-03-02T13:25:00;0.90;;;0.90;;
15246;SDS011;7726;48.820;9.248;2024-03-02T13:27:30;0.50;;;0.50;;
15246;SDS011;7726;48.820;9.248;2024-03-02T13:29:57;0.68;;;0.68;;
15246;SDS011;7726;48.820;9.248;2024-03-02T13:32:25;0.63;;;0.60;;
15246;SDS011;7726;48.820;9.248;2024-03-02T13:34:52;0.50;;;0.50;;
15246;SDS011;7726;48.820;9.248;2024-03-02T13:37:19;0.50;;;0.50;;
15246;SDS011;7726;48.820;9.248;2024-03-02T13:39:47;0.70;;;0.70;;
15246;SDS011;7726;48.820;9.248;2024-03-02T13:42:14;0.70;;;0.70;;
15246;SDS011;7726;48.820;9.248;2024-03-02T13:44:44;1.35;;;0.88;;
15246;SDS011;7726;48.820;9.248;2024-03-02T13:47:13;0.77;;;0.77;;
15246;SDS011;7726;48.820;9.248;2024-03-02T13:49:40;1.13;;;1.02;;
15246;SDS011;7726;48.820;9.248;2024-03-02T13:52:09;1.00;;;1.00;;
15246;SDS011;7726;48.820;9.248;2024-03-02T13:54:38;1.15;;;0.80;;
15246;SDS011;7726;48.820;9.248;2024-03-02T13:57:05;0.73;;;0.60;;
15246;SDS011;7726;48.820;9.248;2024-03-02T13:59:32;0.70;;;0.70;;
15246;SDS011;7726;48.820;9.248;2024-03-02T14:02:01;0.90;;;0.90;;
15246;SDS011;7726;48.820;9.248;2024-03-02T14:04:29;0.88;;;0.88;;
15246;SDS011;7726;48.820;9.248;2024-03-02T14:06:57;0.80;;;0.80;;
15246;SDS011;7726;48.820;9.248;2024-03-02T14:09:24;0.70;;;0.70;;
15246;SDS011;7726;48.820;9.248;2024-03-02T14:11:52;1.05;;;0.93;;
15246;SDS011;7726;48.820;9.248;2024-03-02T14:14:19;0.85;;;0.85;;
15246;SDS011;7726;48.820;9.248;2024-03-02T14:16:46;0.68;;;0.60;;
15246;SDS011;7726;48.820;9.248;2024-03-02T14:19:15;0.60;;;0.60;;
15246;SDS011;7726;48.820;9.248;2024-03-02T14:21:42;0.65;;;0.65;;
15246;SDS011;7726;48.820;9.248;2024-03-02T14:24:09;0.70;;;0.70;;
15246;SDS011;7726;48.820;9.248;2024-03-02T14:26:38;1.20;;;1.10;;
15246;SDS011;7726;48.820;9.248;2024-03-02T14:29:05;1.40;;;1.30;;
15246;SDS011;7726;48.820;9.248;2024-03-02T14:31:33;1.23;;;1.10;;
15246;SDS011;7726;48.820;9.248;2024-03-02T14:34:00;1.15;;;1.05;;
15246;SDS011;7726;48.820;9.248;2024-03-02T14:36:29;0.90;;;0.90;;
15246;SDS011;7726;48.820;9.248;2024-03-02T14:38:56;1.77;;;1.27;;
15246;SDS011;7726;48.820;9.248;2024-03-02T14:41:23;1.20;;;1.10;;
15246;SDS011;7726;48.820;9.248;2024-03-02T14:43:50;1.10;;;1.00;;
15246;SDS011;7726;48.820;9.248;2024-03-02T14:46:18;1.10;;;0.80;;
15246;SDS011;7726;48.820;9.248;2024-03-02T14:48:45;1.00;;;0.90;;
15246;SDS011;7726;48.820;9.248;2024-03-02T14:51:12;1.73;;;0.88;;
15246;SDS011;7726;48.820;9.248;2024-03-02T14:53:41;0.80;;;0.80;;
15246;SDS011;7726;48.820;9.248;2024-03-02T14:56:09;1.23;;;0.93;;
15246;SDS011;7726;48.820;9.248;2024-03-02T14:58:38;0.82;;;0.82;;
15246;SDS011;7726;48.820;9.248;2024-03-02T15:01:05;0.88;;;0.85;;